createdAt,value
2022-11-29T18:50:31.178Z,13.85
2022-11-29T18:52:58.471Z,13.07
2022-11-29T18:55:25.272Z,14.75
2022-11-29T18:57:52.891Z,14.63
2022-11-29T19:00:19.866Z,14.83
2022-11-29T19:02:46.456Z,12.85
2022-11-29T19:05:13.374Z,15.98
2022-11-29T19:07:40.035Z,14.23
2022-11-29T19:10:06.919Z,14.40
2022-11-29T19:12:33.402Z,14.32
2022-11-29T19:14:59.922Z,14.63
2022-11-29T19:17:26.398Z,17.63
2022-11-29T19:19:52.929Z,15.85
2022-11-29T19:22:19.459Z,14.70
2022-11-29T19:24:46.182Z,13.70
2022-11-29T19:27:12.973Z,15.02
2022-11-29T19:29:45.844Z,15.15
2022-11-29T19:32:12.463Z,13.95
2022-11-29T19:34:38.962Z,15.00
2022-11-29T19:37:05.738Z,15.45
2022-11-29T19:39:33.909Z,14.43
2022-11-29T19:42:00.370Z,14.57
2022-11-29T19:44:30.002Z,16.45
2022-11-29T19:46:56.761Z,14.52
2022-11-29T19:49:23.210Z,14.00
2022-11-29T19:51:49.776Z,16.63
2022-11-29T19:54:16.274Z,16.42
2022-11-29T19:56:42.854Z,17.73
2022-11-29T19:59:09.360Z,19.40
2022-11-29T20:01:41.826Z,14.82
2022-11-29T20:04:09.204Z,14.82
2022-11-29T20:06:35.810Z,14.43
2022-11-29T20:09:02.849Z,15.52
2022-11-29T20:11:30.018Z,15.10
2022-11-29T20:14:00.712Z,13.40
2022-11-29T20:16:27.862Z,14.77
2022-11-29T20:18:54.648Z,12.63
2022-11-29T20:21:44.234Z,15.13
2022-11-29T20:24:11.646Z,16.55
2022-11-29T20:29:06.392Z,16.45
2022-11-29T20:31:33.521Z,16.52
2022-11-29T20:34:00.421Z,15.80
2022-11-29T20:36:39.889Z,15.80
2022-11-29T20:39:24.982Z,16.08
2022-11-29T20:41:51.417Z,18.27
2022-11-29T20:44:23.895Z,17.67
2022-11-29T20:46:51.004Z,18.23
2022-11-29T20:49:18.142Z,19.65
2022-11-29T20:51:49.512Z,16.67
2022-11-29T20:54:17.414Z,18.40
2022-11-29T20:56:43.877Z,17.70
2022-11-29T20:59:10.550Z,17.67
2022-11-29T21:01:37.035Z,16.73
2022-11-29T21:04:03.627Z,17.00
2022-11-29T21:06:30.302Z,16.75
2022-11-29T21:08:56.783Z,19.02
2022-11-29T21:11:24.027Z,18.08
2022-11-29T21:13:50.612Z,17.48
2022-11-29T21:16:17.401Z,18.70
2022-11-29T21:18:44.035Z,19.85
2022-11-29T21:21:39.652Z,19.98
2022-11-29T21:24:21.127Z,18.42
2022-11-29T21:26:50.531Z,17.27
2022-11-29T21:29:17.323Z,21.00
2022-11-29T21:31:44.247Z,18.95
2022-11-29T21:34:11.039Z,20.50
2022-11-29T21:36:38.110Z,18.92
2022-11-29T21:39:07.944Z,19.23
2022-11-29T21:41:34.519Z,19.17
2022-11-29T21:44:08.742Z,21.45
2022-11-29T21:46:35.510Z,19.70
2022-11-29T21:49:02.049Z,19.75
2022-11-29T21:51:28.527Z,19.77
2022-11-29T21:53:55.021Z,21.50
2022-11-29T21:56:21.494Z,22.67
2022-11-29T21:58:48.034Z,22.17
2022-11-29T22:01:15.929Z,21.42
2022-11-29T22:03:42.749Z,24.27
2022-11-29T22:06:13.652Z,23.58
2022-11-29T22:08:41.224Z,26.92
2022-11-29T22:11:09.366Z,25.60
2022-11-29T22:13:37.020Z,23.75
2022-11-29T22:16:07.945Z,21.25
2022-11-29T22:18:36.308Z,22.52
2022-11-29T22:21:04.217Z,23.58
2022-11-29T22:23:32.418Z,21.80
2022-11-29T22:26:06.533Z,21.50
2022-11-29T22:28:33.916Z,26.13
2022-11-29T22:31:10.922Z,16.77
2022-11-29T22:33:37.801Z,18.55
2022-11-29T22:36:05.309Z,19.00
2022-11-29T22:38:32.332Z,19.30
2022-11-29T22:40:59.777Z,20.38
2022-11-29T22:43:26.445Z,20.80
2022-11-29T22:45:53.088Z,21.63
2022-11-29T22:48:19.598Z,22.48
2022-11-29T22:50:46.079Z,22.25
2022-11-29T22:53:12.806Z,20.95
2022-11-29T22:55:39.613Z,22.70
2022-11-29T22:58:06.068Z,22.05
2022-11-29T23:00:35.136Z,23.92
2022-11-29T23:03:02.004Z,23.13
2022-11-29T23:05:32.259Z,24.52
2022-11-29T23:07:59.235Z,22.67
2022-11-29T23:10:28.337Z,28.15
2022-11-29T23:12:56.626Z,29.10
2022-11-29T23:15:23.382Z,23.48
2022-11-29T23:17:50.033Z,24.35
2022-11-29T23:20:16.840Z,24.77
2022-11-29T23:22:43.425Z,26.52
2022-11-29T23:25:09.924Z,25.58
2022-11-29T23:27:36.400Z,26.80
2022-11-29T23:30:02.923Z,27.15
2022-11-29T23:32:29.406Z,29.55
